Time;durP1;ratioP1;P1;durP2;ratioP2;P2;SDS_P1;SDS_P2;PMS_P1;PMS_P2;Temp;Humidity;BMP_temperature;BMP_pressure;BME280_temperature;BME280_humidity;BME280_pressure;Samples;Min_cycle;Max_cycle;Signal;HPM_P1;HPM_P2
2022/03/04 00:01:21;;;;;;;23.00;16.30;;;4.00;1.00;4.70;100800.00;;;;4997689;28;20446;-81
2022/03/04 00:03:50;;;;;;;22.40;16.20;;;4.10;1.00;4.60;100800.00;;;;4994912;28;20455;-82
2022/03/04 00:06:18;;;;;;;19.33;14.77;;;4.30;1.00;4.50;100837.00;;;;4992495;28;20458;-84
2022/03/04 00:08:47;;;;;;;21.40;17.07;;;4.00;1.00;4.40;100836.00;;;;4993262;28;20459;-80
2022/03/04 00:11:17;;;;;;;18.63;15.90;;;3.90;1.00;4.50;100792.00;;;;4994003;28;20472;-80
2022/03/04 00:13:46;;;;;;;22.80;15.27;;;3.90;1.00;4.40;100824.00;;;;4998716;28;20454;-80
2022/03/04 00:16:14;;;;;;;22.77;17.03;;;3.90;1.00;4.40;100839.00;;;;5013618;28;20451;-79
2022/03/04 00:18:43;;;;;;;21.60;16.63;;;3.80;1.00;4.40;100820.00;;;;4998975;28;20486;-80
2022/03/04 00:21:12;;;;;;;23.13;16.70;;;3.80;1.00;4.40;100843.00;;;;4992202;28;20481;-81
2022/03/04 00:23:40;;;;;;;21.00;16.30;;;3.80;1.00;4.30;100845.00;;;;4994113;28;20819;-80
2022/03/04 00:26:08;;;;;;;18.40;16.00;;;3.80;1.00;4.20;67176.00;;;;4995721;28;20470;-81
2022/03/04 00:28:38;;;;;;;19.97;16.03;;;3.70;1.00;4.10;100846.00;;;;4993471;28;20461;-80
2022/03/04 00:31:06;;;;;;;20.63;15.77;;;3.60;1.00;4.10;100845.00;;;;4995940;28;20451;-79
2022/03/04 00:33:34;;;;;;;23.77;16.10;;;3.60;1.00;4.10;100835.00;;;;5006093;28;20454;-79
2022/03/04 00:36:03;;;;;;;20.97;16.43;;;3.60;1.00;4.00;100847.00;;;;5005798;28;20457;-80
2022/03/04 00:38:32;;;;;;;20.53;16.80;;;3.50;1.00;4.10;100857.00;;;;5004317;28;20550;-84
2022/03/04 00:41:01;;;;;;;22.70;16.40;;;3.50;1.00;4.10;100848.00;;;;5007302;28;20437;-85
2022/03/04 00:43:29;;;;;;;22.93;17.70;;;3.50;1.00;52.70;158386.00;;;;5012404;28;20514;-79
2022/03/04 00:45:59;;;;;;;19.90;15.83;;;3.60;1.00;4.00;100835.00;;;;5020776;28;20550;-81
2022/03/04 00:48:27;;;;;;;20.80;16.70;;;3.50;1.00;4.10;100863.00;;;;5017235;28;20510;-79
2022/03/04 00:50:56;;;;;;;19.93;17.00;;;3.50;1.00;4.10;100839.00;;;;5019181;28;20445;-80
2022/03/04 00:53:24;;;;;;;20.37;16.83;;;3.50;1.00;4.00;100846.00;;;;5016349;28;20446;-80
2022/03/04 00:55:53;;;;;;;21.03;16.80;;;3.50;1.00;4.00;100848.00;;;;5013934;28;20466;-80
2022/03/04 00:58:21;;;;;;;18.53;15.37;;;3.50;1.00;3.90;100825.00;;;;5005488;28;20454;-81
2022/03/04 01:00:49;;;;;;;19.00;15.70;;;3.50;1.00;3.90;100838.00;;;;4991162;28;21016;-81
2022/03/04 01:03:19;;;;;;;21.20;15.57;;;3.40;1.00;3.80;100845.00;;;;4995350;28;20450;-79
2022/03/04 01:05:48;;;;;;;17.97;14.80;;;3.30;1.00;3.90;100838.00;;;;4986846;28;20523;-80
2022/03/04 01:08:18;;;;;;;19.40;15.47;;;3.30;1.00;3.90;100838.00;;;;5021953;28;20491;-82
2022/03/04 01:10:46;;;;;;;20.57;16.63;;;3.30;1.00;3.70;100827.00;;;;5015001;28;20953;-83
2022/03/04 01:13:15;;;;;;;18.90;15.57;;;3.20;1.00;3.70;100825.00;;;;5015649;28;20434;-82
2022/03/04 01:15:43;;;;;;;18.87;15.30;;;3.20;1.00;3.80;100812.00;;;;5021243;28;20470;-82
2022/03/04 01:18:12;;;;;;;21.80;16.43;;;3.50;1.00;3.70;100807.00;;;;5015810;28;20469;-82
2022/03/04 01:20:42;;;;;;;21.57;16.10;;;3.40;1.00;3.70;100832.00;;;;5017572;28;20486;-82
2022/03/04 01:23:10;;;;;;;19.13;14.50;;;3.20;1.00;3.70;100821.00;;;;5017740;28;20526;-80
2022/03/04 01:25:38;;;;;;;23.83;16.47;;;3.20;1.00;3.80;100826.00;;;;5016387;28;20485;-81
2022/03/04 01:28:07;;;;;;;21.17;16.50;;;3.20;1.00;3.80;100817.00;;;;5012717;28;20511;-81
2022/03/04 01:30:35;;;;;;;21.77;16.50;;;3.20;1.00;3.70;100822.00;;;;5015263;28;21018;-78
2022/03/04 01:33:06;;;;;;;19.13;15.70;;;3.20;1.00;3.60;100831.00;;;;5016052;28;20498;-79
2022/03/04 01:35:36;;;;;;;18.30;14.90;;;3.10;1.00;3.60;100816.00;;;;5016555;28;20561;-82
2022/03/04 01:38:06;;;;;;;18.00;15.10;;;3.10;1.00;3.60;100808.00;;;;5016548;28;20473;-79
2022/03/04 01:40:34;;;;;;;18.27;15.30;;;3.00;1.00;3.50;100797.00;;;;4987088;28;20551;-79
2022/03/04 01:43:02;;;;;;;23.10;16.60;;;3.00;1.00;3.60;100817.00;;;;4989774;28;20443;-78
2022/03/04 01:45:31;;;;;;;21.70;15.97;;;3.00;1.00;3.50;100823.00;;;;4997238;28;20489;-78
2022/03/04 01:47:59;;;;;;;19.80;15.13;;;3.00;1.00;3.40;100815.00;;;;4997155;28;20490;-78
2022/03/04 01:50:28;;;;;;;21.77;15.90;;;2.90;1.00;3.50;100826.00;;;;4995330;28;20473;-78
2022/03/04 01:52:57;;;;;;;21.50;17.80;;;2.90;1.00;3.40;100821.00;;;;4992622;28;20450;-78
2022/03/04 01:55:27;;;;;;;21.33;17.50;;;2.90;1.00;3.40;100825.00;;;;4989809;28;20474;-78
2022/03/04 01:57:56;;;;;;;24.20;15.97;;;2.90;1.00;3.50;100821.00;;;;4988970;28;20451;-79
2022/03/04 02:00:25;;;;;;;21.63;16.47;;;3.00;1.00;3.60;100809.00;;;;4997247;28;20486;-78
2022/03/04 02:02:57;;;;;;;17.90;15.13;;;3.00;1.00;3.60;100805.00;;;;5006966;28;20461;-81
2022/03/04 02:05:27;;;;;;;20.40;15.47;;;3.10;1.00;3.60;100819.00;;;;4997047;28;20509;-84
2022/03/04 02:07:55;;;;;;;20.30;16.30;;;3.10;1.00;3.50;100813.00;;;;4998767;28;20463;-82
2022/03/04 02:10:24;;;;;;;17.27;14.70;;;3.00;1.00;3.50;100803.00;;;;4986880;28;20739;-80
2022/03/04 02:12:54;;;;;;;22.30;16.63;;;3.00;1.00;3.50;100804.00;;;;4999011;28;20533;-80
2022/03/04 02:15:22;;;;;;;23.20;17.23;;;3.00;1.00;217.30;158138.00;;;;4997135;28;20578;-80
2022/03/04 02:17:51;;;;;;;20.00;16.30;;;2.90;1.00;3.50;100790.00;;;;4994658;28;20542;-79
2022/03/04 02:20:22;;;;;;;23.23;16.40;;;3.10;1.00;3.50;100819.00;;;;4994212;28;20470;-79
2022/03/04 02:22:52;;;;;;;22.27;16.67;;;2.90;1.00;3.40;100801.00;;;;4988532;28;20470;-79
2022/03/04 02:25:20;;;;;;;25.33;17.00;;;2.90;1.00;3.40;100808.00;;;;4994339;28;20545;-81
2022/03/04 02:27:48;;;;;;;20.47;16.40;;;2.90;1.00;3.30;100803.00;;;;4986267;28;20996;-79
2022/03/04 02:30:16;;;;;;;22.30;16.30;;;2.80;1.00;3.40;100804.00;;;;4996046;28;20459;-82
2022/03/04 02:32:45;;;;;;;20.90;16.33;;;2.80;1.00;3.30;100804.00;;;;4985848;28;20931;-79
2022/03/04 02:35:13;;;;;;;21.50;16.83;;;2.80;1.00;3.30;100822.00;;;;4987120;28;20532;-79
2022/03/04 02:37:42;;;;;;;19.47;15.80;;;2.80;1.00;3.30;100823.00;;;;4991871;28;20460;-78
2022/03/04 02:40:13;;;;;;;20.63;16.00;;;2.90;1.00;3.30;100801.00;;;;4990358;28;20482;-78
2022/03/04 02:42:42;;;;;;;25.73;16.80;;;2.80;1.00;3.30;100798.00;;;;4999483;28;20471;-79
2022/03/04 02:45:11;;;;;;;21.30;15.73;;;2.70;1.00;3.20;100808.00;;;;4993371;28;20482;-80
2022/03/04 02:47:40;;;;;;;22.37;17.57;;;2.80;1.00;3.30;100797.00;;;;4998631;28;20466;-78
2022/03/04 02:50:09;;;;;;;19.47;14.83;;;2.80;1.00;3.30;100788.00;;;;4990485;28;20459;-79
2022/03/04 02:52:37;;;;;;;19.00;15.97;;;2.80;1.00;3.30;100807.00;;;;4993096;28;21030;-77
2022/03/04 02:55:10;;;;;;;22.17;16.87;;;2.70;1.00;3.20;100790.00;;;;5003334;28;20559;-77
2022/03/04 02:57:41;;;;;;;21.70;16.20;;;2.70;1.00;3.30;100800.00;;;;4989952;28;20459;-77
2022/03/04 03:00:11;;;;;;;18.57;15.40;;;2.70;1.00;3.20;100794.00;;;;4988454;28;20470;-77
2022/03/04 03:02:40;;;;;;;22.43;17.70;;;2.70;1.00;3.10;100803.00;;;;4981203;28;21978;-79
2022/03/04 03:05:10;;;;;;;22.43;16.73;;;2.60;1.00;3.10;100811.00;;;;4993317;28;20482;-80
2022/03/04 03:07:40;;;;;;;19.20;16.27;;;2.60;1.00;3.00;100810.00;;;;4990733;28;20469;-80
2022/03/04 03:10:10;;;;;;;25.07;18.07;;;2.70;1.00;3.00;100811.00;;;;4995459;28;20473;-81
2022/03/04 03:12:42;;;;;;;22.87;16.70;;;2.50;1.00;3.00;100811.00;;;;4993780;28;20450;-80
2022/03/04 03:15:11;;;;;;;19.57;15.80;;;2.50;1.00;3.00;100797.00;;;;5011904;28;20475;-81
2022/03/04 03:17:40;;;;;;;23.57;16.90;;;2.50;1.00;2.80;100793.00;;;;4985437;28;20455;-83
2022/03/04 03:20:10;;;;;;;20.27;16.73;;;2.40;1.00;2.90;100805.00;;;;4994466;28;20490;-83
2022/03/04 03:22:38;;;;;;;20.90;17.30;;;2.40;1.00;2.90;100802.00;;;;5003249;28;20485;-85
2022/03/04 03:25:08;;;;;;;22.33;16.73;;;2.40;1.00;2.90;100771.00;;;;5007081;28;20474;-82
2022/03/04 03:27:36;;;;;;;25.40;19.30;;;2.40;1.00;2.90;100805.00;;;;5003217;28;20469;-88
2022/03/04 03:30:09;;;;;;;22.33;17.10;;;2.60;1.00;2.90;100803.00;;;;5018768;28;20481;-84
2022/03/04 03:32:37;;;;;;;20.17;16.57;;;2.30;1.00;2.90;100801.00;;;;5011391;28;20959;-81
2022/03/04 03:35:08;;;;;;;20.00;15.67;;;2.30;1.00;2.90;100795.00;;;;4995076;28;20482;-83
2022/03/04 03:37:37;;;;;;;23.33;17.97;;;2.30;1.00;2.90;100803.00;;;;4993600;28;20589;-81
2022/03/04 03:40:08;;;;;;;23.77;17.70;;;2.30;1.00;2.90;100798.00;;;;4993275;28;20454;-81
2022/03/04 03:42:38;;;;;;;26.40;18.07;;;2.30;1.00;2.90;100803.00;;;;4993166;28;20449;-82
2022/03/04 03:45:11;;;;;;;23.30;18.07;;;2.30;1.00;2.80;100811.00;;;;4990026;28;21390;-83
2022/03/04 03:47:40;;;;;;;21.53;17.60;;;2.30;1.00;2.70;100816.00;;;;5000099;28;20895;-84
2022/03/04 03:50:14;;;;;;;22.70;16.90;;;2.20;1.00;2.80;100815.00;;;;4991733;28;20490;-79
2022/03/04 03:52:43;;;;;;;21.73;17.37;;;2.20;1.00;2.80;100822.00;;;;4997067;28;21012;-80
2022/03/04 03:55:11;;;;;;;25.53;17.80;;;2.20;1.00;2.80;100819.00;;;;4990763;28;20573;-84
2022/03/04 03:57:40;;;;;;;22.97;17.70;;;2.20;1.00;2.70;100818.00;;;;4987979;28;20460;-80
2022/03/04 04:00:11;;;;;;;24.00;17.30;;;2.10;1.00;2.60;100828.00;;;;4982865;28;21000;-85
2022/03/04 04:02:40;;;;;;;25.00;18.60;;;2.10;1.00;2.60;100823.00;;;;4991106;28;20987;-81
2022/03/04 04:05:10;;;;;;;23.53;17.20;;;2.00;1.00;2.50;100843.00;;;;4989690;28;20470;-81
2022/03/04 04:07:39;;;;;;;24.00;17.53;;;1.90;1.00;2.50;100830.00;;;;4988947;28;20834;-82
2022/03/04 04:10:08;;;;;;;23.67;18.43;;;1.90;1.00;2.40;100849.00;;;;4990129;28;20469;-81
2022/03/04 04:12:37;;;;;;;25.87;18.53;;;1.90;1.00;2.40;100856.00;;;;4989210;28;20557;-80
2022/03/04 04:15:07;;;;;;;23.07;17.97;;;1.90;1.00;2.40;100860.00;;;;4998378;28;20484;-83
2022/03/04 04:17:36;;;;;;;21.83;17.20;;;1.50;1.00;2.40;100859.00;;;;4981082;28;20470;-82
2022/03/04 04:20:07;;;;;;;24.17;18.97;;;1.80;1.00;2.40;100858.00;;;;5001960;28;20971;-80
2022/03/04 04:22:35;;;;;;;24.87;20.10;;;1.80;1.00;2.40;100847.00;;;;4992365;28;20486;-86
2022/03/04 04:25:04;;;;;;;25.40;18.93;;;1.80;1.00;2.50;100863.00;;;;4995643;28;20467;-85
2022/03/04 04:27:33;;;;;;;23.33;17.70;;;1.90;1.00;2.40;100854.00;;;;5006666;28;20471;-85
2022/03/04 04:30:01;;;;;;;23.90;18.33;;;1.90;1.00;2.40;100853.00;;;;4997318;28;20466;-84
2022/03/04 04:32:30;;;;;;;24.30;19.37;;;1.90;1.00;2.30;100873.00;;;;4999735;28;20975;-86
2022/03/04 04:34:59;;;;;;;25.30;19.70;;;1.80;1.00;2.30;100865.00;;;;4996721;28;20482;-82
2022/03/04 04:37:28;;;;;;;25.50;19.83;;;1.80;1.00;2.30;100848.00;;;;4997126;28;20549;-82
2022/03/04 04:39:56;;;;;;;24.47;18.97;;;1.80;1.00;2.30;100837.00;;;;4996475;28;20442;-82
2022/03/04 04:42:25;;;;;;;24.97;19.33;;;1.80;1.00;2.40;100862.00;;;;4997748;28;20478;-83
2022/03/04 04:44:53;;;;;;;27.47;21.30;;;1.80;1.00;2.30;100871.00;;;;4994372;28;21341;-80
2022/03/04 04:47:22;;;;;;;24.97;19.63;;;1.80;1.00;2.20;100872.00;;;;5008543;28;20447;-81
2022/03/04 04:49:50;;;;;;;25.43;19.90;;;1.80;1.00;2.20;100864.00;;;;4992967;28;21575;-81
2022/03/04 04:52:20;;;;;;;23.70;18.93;;;1.60;1.00;2.20;100872.00;;;;4993987;28;20538;-81
2022/03/04 04:54:48;;;;;;;23.90;18.90;;;1.60;1.00;2.10;100870.00;;;;4991838;28;20475;-84
2022/03/04 04:57:17;;;;;;;25.87;20.27;;;1.80;1.00;2.00;100863.00;;;;5003595;28;20450;-81
2022/03/04 04:59:45;;;;;;;24.10;19.87;;;1.60;1.00;2.10;100849.00;;;;4991162;28;20837;-80
2022/03/04 05:02:14;;;;;;;24.07;19.20;;;1.80;1.00;2.10;66688.00;;;;4997575;28;20474;-80
2022/03/04 05:04:42;;;;;;;24.87;19.53;;;1.60;1.00;2.00;66675.00;;;;5003743;28;20485;-83
2022/03/04 05:07:11;;;;;;;28.07;20.03;;;1.50;1.00;2.00;100851.00;;;;4996793;28;20538;-83
2022/03/04 05:09:41;;;;;;;27.37;20.70;;;1.50;1.00;2.00;100880.00;;;;4998267;28;20446;-83
2022/03/04 05:12:10;;;;;;;27.37;19.80;;;1.40;1.00;2.10;100867.00;;;;4993078;28;20834;-84
2022/03/04 05:14:39;;;;;;;29.83;21.30;;;1.10;1.00;2.10;100859.00;;;;4993378;28;20482;-83
2022/03/04 05:17:07;;;;;;;27.77;20.43;;;1.60;1.00;2.20;100838.00;;;;4993619;28;20554;-82
2022/03/04 05:19:35;;;;;;;26.60;19.90;;;1.60;1.00;2.10;100848.00;;;;4995416;28;20493;-84
2022/03/04 05:22:06;;;;;;;29.40;20.90;;;1.60;1.00;2.00;100850.00;;;;4993184;28;20474;-80
2022/03/04 05:24:34;;;;;;;27.87;19.87;;;1.50;1.00;2.10;100857.00;;;;4998701;28;20465;-83
2022/03/04 05:27:04;;;;;;;25.93;19.50;;;1.00;1.00;2.10;100818.00;;;;5006188;28;20458;-83
2022/03/04 05:29:36;;;;;;;27.63;21.90;;;1.60;1.00;2.10;100859.00;;;;4999724;28;20532;-84
2022/03/04 05:32:05;;;;;;;28.23;20.60;;;1.70;1.00;2.00;100861.00;;;;4988043;28;20485;-83
2022/03/04 05:34:34;;;;;;;24.20;20.00;;;1.50;1.00;2.00;100896.00;;;;4995442;28;20463;-83
2022/03/04 05:37:02;;;;;;;29.10;21.50;;;1.40;1.00;2.00;100854.00;;;;5011824;28;20518;-82
2022/03/04 05:39:31;;;;;;;30.77;22.67;;;1.50;1.00;1.90;100868.00;;;;5006717;28;20451;-81
2022/03/04 05:41:59;;;;;;;34.73;22.93;;;1.40;1.00;1.90;100878.00;;;;5008039;28;20470;-82
2022/03/04 05:44:29;;;;;;;26.67;20.00;;;1.30;1.00;1.80;100865.00;;;;5010141;28;20465;-82
2022/03/04 05:46:58;;;;;;;31.63;21.97;;;1.30;1.00;1.80;100862.00;;;;5000684;28;20443;-81
2022/03/04 05:49:26;;;;;;;29.23;20.73;;;1.30;1.00;2.00;100865.00;;;;5013914;28;20823;-82
2022/03/04 05:51:55;;;;;;;29.30;20.73;;;1.40;1.00;1.90;100865.00;;;;4997355;28;20545;-85
2022/03/04 05:54:24;;;;;;;27.37;21.90;;;1.40;1.00;1.90;100884.00;;;;4999100;28;20478;-81
2022/03/04 05:56:52;;;;;;;29.00;19.37;;;1.30;1.00;1.80;100887.00;;;;5008895;28;20456;-82
2022/03/04 05:59:21;;;;;;;29.00;20.90;;;1.30;1.00;1.70;100873.00;;;;4989081;28;20970;-81
2022/03/04 06:01:51;;;;;;;30.33;22.67;;;1.20;1.00;1.80;100902.00;;;;4997707;28;20562;-85
2022/03/04 06:04:19;;;;;;;29.87;21.10;;;1.20;1.00;1.80;100914.00;;;;5012054;28;20481;-82
2022/03/04 06:06:48;;;;;;;27.30;22.03;;;1.20;1.00;1.70;100886.00;;;;5012210;28;20454;-84
2022/03/04 06:09:16;;;;;;;29.30;20.87;;;1.20;1.00;1.70;100906.00;;;;5010244;28;20439;-82
2022/03/04 06:11:45;;;;;;;27.87;20.37;;;1.20;1.00;1.80;100902.00;;;;5013160;28;20466;-81
2022/03/04 06:14:14;;;;;;;28.13;21.30;;;1.20;1.00;1.80;66635.00;;;;5013106;28;20534;-79
2022/03/04 06:16:42;;;;;;;25.03;19.57;;;1.20;1.00;1.80;100901.00;;;;4995558;28;20454;-84
2022/03/04 06:19:12;;;;;;;25.37;19.47;;;1.20;1.00;1.90;100925.00;;;;4990603;28;20549;-81
2022/03/04 06:21:41;;;;;;;29.77;20.57;;;1.30;1.00;1.90;100911.00;;;;4989585;28;21189;-83
2022/03/04 06:24:09;;;;;;;28.00;21.07;;;1.60;1.00;2.00;100912.00;;;;4988571;28;20470;-84
2022/03/04 06:26:38;;;;;;;31.53;20.13;;;1.40;1.00;2.10;100941.00;;;;5004715;28;20994;-82
2022/03/04 06:29:06;;;;;;;28.23;20.07;;;1.50;1.00;2.20;100945.00;;;;4988301;28;20483;-83
2022/03/04 06:31:34;;;;;;;27.30;19.33;;;1.50;1.00;2.20;100937.00;;;;4987220;28;20545;-82
2022/03/04 06:34:03;;;;;;;28.80;19.70;;;1.60;1.00;2.30;100912.00;;;;4989223;28;20489;-84
2022/03/04 06:36:33;;;;;;;34.57;20.70;;;1.70;1.00;2.30;100952.00;;;;4985009;28;20451;-81
2022/03/04 06:39:01;;;;;;;32.10;20.67;;;1.70;1.00;2.30;100935.00;;;;4987192;28;20462;-85
2022/03/04 06:41:29;;;;;;;30.77;21.27;;;1.70;1.00;2.40;100944.00;;;;4988179;28;20995;-80
2022/03/04 06:43:58;;;;;;;31.43;21.77;;;1.60;1.00;2.60;100951.00;;;;5011501;28;20483;-80
2022/03/04 06:46:26;;;;;;;27.67;20.13;;;1.90;1.00;2.60;100958.00;;;;4980293;28;20454;-83
2022/03/04 06:48:55;;;;;;;31.77;21.27;;;2.00;1.00;2.70;100958.00;;;;4987765;28;20461;-84
2022/03/04 06:51:23;;;;;;;28.40;20.43;;;2.30;1.00;2.80;100955.00;;;;4989124;28;20525;-84
2022/03/04 06:53:53;;;;;;;27.00;19.53;;;2.20;1.00;2.80;100945.00;;;;4986248;28;20454;-85
2022/03/04 06:56:21;;;;;;;27.77;19.63;;;2.50;1.00;2.90;100936.00;;;;4981413;28;20455;-85
2022/03/04 06:58:52;;;;;;;30.17;20.87;;;2.30;1.00;2.90;100959.00;;;;4984365;28;20463;-82
2022/03/04 07:01:21;;;;;;;27.10;21.17;;;2.30;1.00;2.90;100965.00;;;;4986006;28;20465;-83
2022/03/04 07:03:50;;;;;;;25.30;19.57;;;2.30;1.00;3.00;100971.00;;;;4987463;28;20474;-84
2022/03/04 07:06:19;;;;;;;28.67;20.50;;;2.40;1.00;3.10;100963.00;;;;4990230;28;20459;-82
2022/03/04 07:08:48;;;;;;;29.40;21.40;;;2.40;1.00;2.90;101000.00;;;;4989152;28;20458;-82
2022/03/04 07:11:17;;;;;;;29.77;21.13;;;2.30;1.00;3.00;100700.00;;;;4988786;28;20451;-81
2022/03/04 07:13:46;;;;;;;28.00;20.60;;;2.40;1.00;52.70;157892.00;;;;4980813;28;20463;-84
2022/03/04 07:16:14;;;;;;;27.07;20.13;;;2.40;1.00;3.00;100965.00;;;;4984220;28;20446;-80
2022/03/04 07:18:43;;;;;;;30.17;19.90;;;2.40;1.00;3.10;100985.00;;;;4999014;28;20730;-81
2022/03/04 07:21:13;;;;;;;27.73;20.77;;;2.50;1.00;3.30;101002.00;;;;4997022;28;20451;-83
2022/03/04 07:23:41;;;;;;;28.73;21.27;;;2.60;1.00;3.40;101006.00;;;;4992802;28;20486;-83
2022/03/04 07:26:12;;;;;;;28.43;20.50;;;2.70;1.00;3.50;101002.00;;;;4986674;28;20450;-83
2022/03/04 07:28:42;;;;;;;28.20;21.03;;;3.10;1.00;3.50;101002.00;;;;4992626;28;20542;-83
2022/03/04 07:31:11;;;;;;;31.37;21.37;;;2.90;1.00;3.70;100950.00;;;;4991110;28;20459;-82
2022/03/04 07:33:39;;;;;;;31.10;21.40;;;3.00;1.00;3.70;101010.00;;;;5000668;28;20548;-83
2022/03/04 07:36:08;;;;;;;28.47;20.17;;;3.10;1.00;3.80;100992.00;;;;4991595;28;20991;-82
2022/03/04 07:38:36;;;;;;;26.60;19.33;;;3.20;1.00;3.70;101015.00;;;;4990129;28;20549;-82
2022/03/04 07:41:04;;;;;;;29.87;22.20;;;3.20;1.00;3.90;101000.00;;;;4991085;28;20550;-83
2022/03/04 07:43:33;;;;;;;29.60;21.07;;;3.30;1.00;4.00;101005.00;;;;4990872;28;20506;-82
2022/03/04 07:46:02;;;;;;;31.50;22.10;;;3.40;1.00;4.10;100964.00;;;;4991261;28;20458;-83
2022/03/04 07:48:31;;;;;;;29.77;21.40;;;3.50;1.00;4.20;101010.00;;;;5002309;28;20471;-82
2022/03/04 07:51:00;;;;;;;27.87;21.70;;;3.60;1.00;4.10;100999.00;;;;5001039;28;20473;-83
2022/03/04 07:53:28;;;;;;;30.63;21.27;;;3.60;1.00;4.30;101003.00;;;;5016182;28;20501;-84
2022/03/04 07:55:57;;;;;;;27.93;22.17;;;3.70;1.00;4.40;101022.00;;;;4986115;28;20502;-84
2022/03/04 07:58:25;;;;;;;35.23;21.87;;;3.80;1.00;4.40;100959.00;;;;5001989;28;20538;-83
2022/03/04 08:00:53;;;;;;;38.67;20.57;;;3.80;1.00;4.50;101007.00;;;;4998200;28;20458;-82
2022/03/04 08:03:43;;;;;;;29.00;21.50;;;3.90;1.00;4.40;100990.00;;;;5003283;28;20463;-83
2022/03/04 08:06:13;;;;;;;29.23;21.57;;;3.80;1.00;4.50;101036.00;;;;5005470;28;20451;-82
2022/03/04 08:08:41;;;;;;;26.70;20.40;;;3.90;1.00;4.40;100984.00;;;;4997291;28;20447;-84
2022/03/04 08:11:09;;;;;;;29.63;20.73;;;3.90;1.00;4.50;101020.00;;;;5007066;28;20442;-83
2022/03/04 08:13:38;;;;;;;28.60;21.30;;;3.90;1.00;4.30;101023.00;;;;5000810;28;20465;-85
2022/03/04 08:16:06;;;;;;;28.03;21.63;;;3.80;1.00;4.50;101027.00;;;;5002945;28;20463;-82
2022/03/04 08:18:35;;;;;;;28.90;21.23;;;3.90;1.00;4.50;100990.00;;;;5008385;28;20462;-82
2022/03/04 08:21:06;;;;;;;32.80;23.43;;;3.90;1.00;4.60;101008.00;;;;5007000;28;20494;-83
2022/03/04 08:23:35;;;;;;;28.70;22.20;;;4.00;1.00;4.60;101026.00;;;;5005900;28;20462;-80
2022/03/04 08:26:04;;;;;;;29.63;22.53;;;4.00;1.00;4.40;101014.00;;;;5005294;28;20454;-81
2022/03/04 08:28:33;;;;;;;33.70;23.60;;;4.30;1.00;4.50;101019.00;;;;5015086;28;20461;-81
2022/03/04 08:31:10;;;;;;;32.70;23.00;;;4.10;1.00;4.50;101005.00;;;;5005622;28;20538;-83
2022/03/04 08:33:41;;;;;;;34.17;23.30;;;4.00;1.00;4.60;101014.00;;;;5011359;28;20530;-83
2022/03/04 08:36:13;;;;;;;30.77;22.77;;;4.50;1.00;4.60;101042.00;;;;5014728;28;20449;-83
2022/03/04 08:38:41;;;;;;;42.73;29.17;;;4.50;1.00;4.70;101020.00;;;;5011608;28;20470;-83
2022/03/04 08:41:09;;;;;;;30.30;21.80;;;4.10;1.00;4.60;101002.00;;;;4999761;28;20490;-84
2022/03/04 08:43:39;;;;;;;36.00;21.77;;;4.10;1.00;4.70;101029.00;;;;5002706;28;20474;-83
2022/03/04 08:46:08;;;;;;;30.23;21.83;;;4.10;1.00;4.60;101013.00;;;;5017784;28;20432;-81
2022/03/04 08:48:36;;;;;;;32.43;23.27;;;4.10;1.00;4.70;101023.00;;;;5014530;28;20466;-82
2022/03/04 08:51:05;;;;;;;33.97;22.87;;;4.20;1.00;4.80;101037.00;;;;5018800;28;20466;-82
2022/03/04 08:53:35;;;;;;;30.03;22.73;;;4.30;1.00;4.60;101030.00;;;;5022208;28;20448;-82
2022/03/04 08:56:05;;;;;;;37.30;23.50;;;4.20;1.00;4.70;101015.00;;;;5033303;28;20446;-80
2022/03/04 08:58:34;;;;;;;37.10;23.50;;;4.20;1.00;4.60;101020.00;;;;5017446;28;20542;-81
2022/03/04 09:01:04;;;;;;;34.20;24.23;;;4.20;1.00;4.50;101010.00;;;;5014545;28;20490;-81
2022/03/04 09:03:33;;;;;;;35.83;24.73;;;4.10;1.00;4.70;101009.00;;;;5015658;28;20454;-80
2022/03/04 09:06:01;;;;;;;29.60;21.93;;;4.20;1.00;4.80;101032.00;;;;5024728;28;20463;-81
2022/03/04 09:08:30;;;;;;;36.57;25.00;;;4.30;1.00;4.80;101033.00;;;;5032245;28;20530;-83
2022/03/04 09:11:00;;;;;;;31.60;22.30;;;4.30;1.00;5.10;101004.00;;;;5016289;28;20446;-83
2022/03/04 09:13:30;;;;;;;34.03;25.00;;;5.00;1.00;4.90;101022.00;;;;5000556;28;20869;-82
2022/03/04 09:15:59;;;;;;;32.40;23.27;;;4.60;1.00;5.10;101010.00;;;;5000313;28;20849;-84
2022/03/04 09:18:29;;;;;;;39.73;23.13;;;4.70;1.00;5.10;101017.00;;;;4998891;28;20486;-83
2022/03/04 09:20:58;;;;;;;36.87;25.00;;;5.00;1.00;5.30;101028.00;;;;5013235;28;20503;-83
2022/03/04 09:23:26;;;;;;;33.33;25.20;;;4.80;1.00;5.50;101017.00;;;;4997426;28;20489;-81
2022/03/04 09:25:56;;;;;;;33.70;24.67;;;4.90;1.00;5.60;101017.00;;;;5004536;28;20483;-84
2022/03/04 09:28:26;;;;;;;31.67;23.90;;;5.10;1.00;5.60;101022.00;;;;5012327;28;20972;-84
2022/03/04 09:30:54;;;;;;;32.30;24.13;;;5.10;1.00;5.70;100996.00;;;;4995322;28;20486;-84
2022/03/04 09:33:22;;;;;;;31.47;23.17;;;5.20;1.00;5.80;101040.00;;;;4992248;28;20529;-84
2022/03/04 09:35:51;;;;;;;29.53;21.27;;;5.30;1.00;5.70;101031.00;;;;4990782;28;20474;-84
2022/03/04 09:38:20;;;;;;;37.13;25.20;;;5.30;1.00;5.80;101033.00;;;;4993390;28;21302;-84
2022/03/04 09:40:49;;;;;;;34.80;27.10;;;5.30;1.00;5.80;101016.00;;;;4995544;28;20458;-85
2022/03/04 09:43:19;;;;;;;33.63;25.73;;;5.40;1.00;5.80;101037.00;;;;4985954;28;20482;-83
2022/03/04 09:45:50;;;;;;;32.47;22.80;;;5.80;1.00;5.60;101030.00;;;;5002805;28;20478;-83
2022/03/04 09:48:19;;;;;;;32.53;25.73;;;5.30;1.00;5.90;101009.00;;;;5005689;28;20465;-85
2022/03/04 09:50:49;;;;;;;34.10;24.90;;;5.50;1.00;6.20;101037.00;;;;4992115;28;20561;-82
2022/03/04 09:53:18;;;;;;;32.07;24.73;;;5.70;1.00;6.20;100998.00;;;;4992554;28;20572;-85
2022/03/04 09:55:47;;;;;;;33.67;24.80;;;5.70;1.00;6.20;101023.00;;;;4993574;28;20486;-83
2022/03/04 09:58:18;;;;;;;32.63;23.00;;;5.80;1.00;6.30;101032.00;;;;4984745;28;21024;-84
2022/03/04 10:00:49;;;;;;;34.40;23.67;;;5.90;1.00;6.40;101017.00;;;;4991866;28;20505;-84
2022/03/04 10:03:21;;;;;;;32.37;24.20;;;6.00;1.00;6.50;101018.00;;;;5007508;28;20530;-85
2022/03/04 10:05:55;;;;;;;36.23;24.77;;;6.00;1.00;6.50;101034.00;;;;4995967;28;20485;-84
2022/03/04 10:08:24;;;;;;;32.07;23.13;;;6.10;1.00;6.40;101005.00;;;;4999080;28;20485;-84
2022/03/04 10:10:55;;;;;;;30.23;22.27;;;6.00;1.00;6.40;101018.00;;;;5008172;28;20470;-82
2022/03/04 10:13:43;;;;;;;33.83;24.80;;;6.00;1.00;6.50;101001.00;;;;5012103;28;20527;-83
2022/03/04 10:16:22;;;;;;;34.80;23.47;;;6.10;1.00;6.40;101020.00;;;;5006621;28;20450;-83
2022/03/04 10:19:09;;;;;;;34.00;24.60;;;6.10;1.00;6.40;101016.00;;;;5000459;28;21697;-84
2022/03/04 10:21:50;;;;;;;31.60;23.13;;;6.10;1.00;6.60;101022.00;;;;4996000;28;20458;-84
2022/03/04 10:24:21;;;;;;;33.60;24.97;;;6.30;1.00;6.70;101021.00;;;;4990099;28;20498;-81
2022/03/04 10:26:59;;;;;;;33.90;25.33;;;6.40;1.00;6.80;100999.00;;;;4990852;28;20493;-82
2022/03/04 10:29:29;;;;;;;33.73;26.33;;;6.40;1.00;6.90;101009.00;;;;4983315;28;20469;-80
2022/03/04 10:32:18;;;;;;;30.67;24.73;;;6.50;1.00;7.00;101012.00;;;;4992821;28;20469;-81
2022/03/04 10:34:54;;;;;;;34.10;23.70;;;6.60;1.00;7.00;100972.00;;;;4992461;28;20462;-80
2022/03/04 10:37:26;;;;;;;36.33;24.83;;;6.60;1.00;7.20;101006.00;;;;4993804;28;20597;-79
2022/03/04 10:40:08;;;;;;;33.40;25.00;;;7.10;1.00;7.30;101019.00;;;;4993038;28;20545;-82
2022/03/04 10:42:47;;;;;;;34.87;25.30;;;6.90;1.00;7.30;101020.00;;;;4987302;28;20521;-80
2022/03/04 10:45:19;;;;;;;35.37;26.20;;;6.90;1.00;7.50;101000.00;;;;4989369;28;20474;-80
2022/03/04 10:47:53;;;;;;;36.60;24.90;;;7.50;1.00;7.60;100989.00;;;;4989929;28;20513;-81
2022/03/04 10:50:32;;;;;;;32.50;25.87;;;7.30;1.00;7.60;101002.00;;;;4992693;28;20455;-79
2022/03/04 10:53:02;;;;;;;33.80;25.50;;;7.30;1.00;7.60;100997.00;;;;4990488;28;20466;-80
2022/03/04 10:55:41;;;;;;;32.63;23.40;;;7.20;1.00;7.40;100994.00;;;;4990406;28;20907;-81
2022/03/04 10:58:17;;;;;;;35.13;25.60;;;7.10;1.00;7.50;100991.00;;;;4994354;28;20450;-80
2022/03/04 11:00:50;;;;;;;34.23;25.37;;;7.20;1.00;7.50;100994.00;;;;5010440;28;20450;-80
2022/03/04 11:03:28;;;;;;;36.10;26.50;;;7.20;1.00;7.80;100994.00;;;;4992993;28;20513;-80
2022/03/04 11:06:02;;;;;;;31.53;24.87;;;7.50;1.00;8.00;100956.00;;;;4994443;28;20490;-80